createdAt,value
2022-10-20T00:01:15.132Z,13.75
2022-10-20T00:03:42.188Z,14.10
2022-10-20T00:06:13.736Z,14.02
2022-10-20T00:08:41.466Z,13.80
2022-10-20T00:11:09.580Z,14.38
2022-10-20T00:13:36.827Z,13.30
2022-10-20T00:16:04.050Z,14.07
2022-10-20T00:18:31.089Z,14.35
2022-10-20T00:20:58.041Z,13.90
2022-10-20T00:23:24.951Z,12.80
2022-10-20T00:26:16.268Z,13.77
2022-10-20T00:28:43.483Z,14.00
2022-10-20T00:31:10.970Z,13.93
2022-10-20T00:33:37.889Z,14.63
2022-10-20T00:36:06.922Z,14.18
2022-10-20T00:38:34.177Z,14.65
2022-10-20T00:41:03.109Z,15.13
2022-10-20T00:43:52.363Z,13.30
2022-10-20T00:46:40.239Z,14.30
2022-10-20T00:49:16.015Z,14.23
2022-10-20T00:51:42.941Z,13.80
2022-10-20T00:54:11.948Z,14.20
2022-10-20T00:56:40.936Z,13.93
2022-10-20T00:59:07.964Z,14.07
2022-10-20T01:01:34.949Z,13.85
2022-10-20T01:04:01.849Z,13.90
2022-10-20T01:06:28.875Z,14.45
2022-10-20T01:08:55.864Z,13.93
2022-10-20T01:11:46.456Z,12.82
2022-10-20T01:14:16.464Z,13.45
2022-10-20T01:17:04.808Z,14.35
2022-10-20T01:20:13.843Z,14.73
2022-10-20T01:22:56.150Z,13.75
2022-10-20T01:25:43.303Z,13.98
2022-10-20T01:28:14.869Z,13.75
2022-10-20T01:30:45.608Z,14.65
2022-10-20T01:33:41.614Z,14.35
2022-10-20T01:36:14.117Z,14.55
2022-10-20T01:38:42.684Z,14.32
2022-10-20T01:41:18.544Z,13.68
2022-10-20T01:43:46.312Z,13.40
2022-10-20T01:46:13.274Z,14.50
2022-10-20T01:48:40.571Z,13.95
2022-10-20T01:51:07.750Z,13.18
2022-10-20T01:53:34.684Z,13.02
2022-10-20T01:56:01.708Z,13.63
2022-10-20T01:58:55.192Z,13.45
2022-10-20T02:01:57.301Z,12.40
2022-10-20T02:07:00.879Z,12.80
2022-10-20T02:09:42.774Z,13.63
2022-10-20T02:12:13.652Z,13.55
2022-10-20T02:14:40.621Z,13.63
2022-10-20T02:17:08.869Z,14.23
2022-10-20T02:19:38.684Z,11.27
2022-10-20T02:22:05.808Z,13.23
2022-10-20T02:24:35.457Z,12.35
2022-10-20T02:27:03.931Z,13.55
2022-10-20T02:29:33.233Z,12.90
2022-10-20T02:32:00.168Z,13.30
2022-10-20T02:34:27.270Z,11.68
2022-10-20T02:36:57.493Z,12.00
2022-10-20T02:39:24.962Z,14.25
2022-10-20T02:41:52.151Z,13.60
2022-10-20T02:44:19.106Z,13.75
2022-10-20T02:46:46.232Z,14.10
2022-10-20T02:49:13.169Z,13.75
2022-10-20T02:51:40.120Z,14.52
2022-10-20T02:54:07.163Z,14.05
2022-10-20T02:56:34.331Z,12.20
2022-10-20T02:59:01.311Z,12.45
2022-10-20T03:01:28.261Z,11.90
2022-10-20T03:03:59.796Z,11.63
2022-10-20T03:06:27.196Z,13.63
2022-10-20T03:08:54.249Z,12.30
2022-10-20T03:11:21.208Z,12.82
2022-10-20T03:13:48.172Z,13.82
2022-10-20T03:16:15.121Z,11.65
2022-10-20T03:18:42.159Z,12.23
2022-10-20T03:21:09.165Z,12.25
2022-10-20T03:23:36.109Z,11.82
2022-10-20T03:26:06.536Z,12.15
2022-10-20T03:28:33.738Z,12.50
2022-10-20T03:31:00.893Z,13.20
2022-10-20T03:33:27.844Z,11.82
2022-10-20T03:35:54.788Z,13.10
2022-10-20T03:38:21.836Z,14.43
2022-10-20T03:40:48.834Z,14.18
2022-10-20T03:43:15.920Z,13.23
2022-10-20T03:45:43.344Z,14.23
2022-10-20T03:48:10.959Z,13.85
2022-10-20T03:50:41.741Z,13.90
2022-10-20T03:53:09.303Z,13.55
2022-10-20T03:55:37.174Z,14.10
2022-10-20T03:58:04.107Z,13.30
2022-10-20T04:00:31.133Z,13.50
2022-10-20T04:02:58.069Z,14.43
2022-10-20T04:05:24.959Z,13.57
2022-10-20T04:07:51.882Z,15.40
2022-10-20T04:10:18.856Z,15.88
2022-10-20T04:12:46.042Z,16.63
2022-10-20T04:15:13.121Z,16.40
2022-10-20T04:20:07.525Z,16.02
2022-10-20T04:22:34.789Z,15.07
2022-10-20T04:25:02.273Z,14.30
2022-10-20T04:27:29.365Z,12.23
2022-10-20T04:29:56.285Z,13.05
2022-10-20T04:32:23.188Z,12.32
2022-10-20T04:34:51.970Z,13.35
2022-10-20T04:37:18.941Z,13.98
2022-10-20T04:39:45.998Z,11.85
2022-10-20T04:42:12.864Z,12.73
2022-10-20T04:44:39.908Z,12.27
2022-10-20T04:47:06.880Z,13.48
2022-10-20T04:49:33.874Z,13.23
2022-10-20T04:52:01.288Z,12.80
2022-10-20T04:54:28.678Z,12.02
2022-10-20T04:56:55.815Z,13.25
2022-10-20T04:59:23.035Z,13.18
2022-10-20T05:01:50.119Z,13.45
2022-10-20T05:04:22.033Z,15.20
2022-10-20T05:06:49.436Z,13.02
2022-10-20T05:09:16.800Z,11.38
2022-10-20T05:11:43.995Z,12.80
2022-10-20T05:14:11.035Z,14.00
2022-10-20T05:16:37.967Z,12.27
2022-10-20T05:19:04.909Z,12.30
2022-10-20T05:21:32.414Z,11.77
2022-10-20T05:24:00.918Z,14.00
2022-10-20T05:26:29.534Z,15.38
2022-10-20T05:28:56.462Z,14.57
2022-10-20T05:31:23.589Z,14.60
2022-10-20T05:33:51.837Z,13.68
2022-10-20T05:36:21.669Z,14.27
2022-10-20T05:38:49.357Z,11.95
2022-10-20T05:41:18.120Z,14.18
2022-10-20T05:43:49.914Z,13.95
2022-10-20T05:48:44.141Z,15.60
2022-10-20T05:51:16.463Z,15.90
2022-10-20T05:53:43.938Z,15.95
2022-10-20T05:56:14.246Z,17.63
2022-10-20T05:58:43.774Z,17.60
2022-10-20T06:01:19.770Z,16.73
2022-10-20T06:03:57.480Z,16.45
2022-10-20T06:06:29.507Z,17.25
2022-10-20T06:08:57.428Z,16.77
2022-10-20T06:11:25.000Z,16.15
2022-10-20T06:13:53.233Z,17.95
2022-10-20T06:16:24.967Z,15.23
2022-10-20T06:18:51.965Z,17.25
2022-10-20T06:21:26.696Z,15.75
2022-10-20T06:23:53.698Z,15.55
2022-10-20T06:26:22.723Z,16.85
2022-10-20T06:28:51.635Z,14.60
2022-10-20T06:31:23.294Z,15.00
2022-10-20T06:33:50.613Z,15.43
2022-10-20T06:36:17.900Z,14.93
2022-10-20T06:38:45.080Z,14.48
2022-10-20T06:41:14.071Z,14.73
2022-10-20T06:43:41.136Z,14.80
2022-10-20T06:46:10.723Z,16.65
2022-10-20T06:48:37.688Z,15.18
2022-10-20T06:51:14.925Z,13.93
2022-10-20T06:53:45.732Z,13.50
2022-10-20T06:56:40.379Z,12.30
2022-10-20T06:59:07.438Z,14.00
2022-10-20T07:01:38.435Z,12.70
2022-10-20T07:04:07.285Z,12.80
2022-10-20T07:06:39.041Z,13.95
2022-10-20T07:11:35.801Z,15.10
2022-10-20T07:14:03.045Z,14.20
2022-10-20T07:16:31.916Z,14.18
2022-10-20T07:19:06.363Z,12.48
2022-10-20T07:21:36.480Z,13.70
2022-10-20T07:24:05.341Z,12.50
2022-10-20T07:26:34.344Z,12.35
2022-10-20T07:29:01.649Z,11.73
2022-10-20T07:31:33.866Z,11.57
2022-10-20T07:34:13.562Z,11.63
2022-10-20T07:36:49.390Z,10.90
2022-10-20T07:39:16.304Z,11.35
2022-10-20T07:41:47.823Z,11.00
2022-10-20T07:44:14.928Z,11.55
2022-10-20T07:46:41.872Z,10.70
2022-10-20T07:49:39.207Z,10.57
2022-10-20T07:51:56.407Z,10.40
2022-10-20T07:54:23.425Z,11.27
2022-10-20T07:56:50.545Z,11.23
2022-10-20T07:59:17.499Z,10.35
2022-10-20T08:01:44.775Z,9.85
2022-10-20T08:04:12.016Z,11.30
2022-10-20T08:06:39.559Z,10.80
2022-10-20T08:09:07.519Z,10.18
2022-10-20T08:11:35.127Z,10.40
2022-10-20T08:14:02.142Z,10.75
2022-10-20T08:16:32.097Z,10.25
2022-10-20T08:19:15.094Z,8.82
2022-10-20T08:21:42.062Z,9.65
2022-10-20T08:24:09.070Z,9.35
2022-10-20T08:26:36.109Z,9.23
2022-10-20T08:29:03.348Z,9.13
2022-10-20T08:31:30.284Z,9.95
2022-10-20T08:33:57.480Z,10.05
2022-10-20T08:36:24.799Z,10.10
2022-10-20T08:38:51.933Z,9.48
2022-10-20T08:41:21.059Z,10.20
2022-10-20T08:43:49.167Z,9.68
2022-10-20T08:48:45.491Z,9.77
2022-10-20T08:51:21.106Z,10.18
2022-10-20T08:53:48.479Z,10.38
2022-10-20T08:56:15.459Z,10.05
2022-10-20T08:58:43.897Z,10.10
2022-10-20T09:01:23.724Z,10.07
2022-10-20T09:03:57.202Z,10.35
2022-10-20T09:06:24.258Z,11.40
2022-10-20T09:08:51.399Z,10.38
2022-10-20T09:11:26.081Z,9.50
2022-10-20T09:13:53.575Z,9.30
2022-10-20T09:16:58.816Z,9.60
2022-10-20T09:19:25.374Z,7.70
2022-10-20T09:21:55.399Z,7.75
2022-10-20T09:24:22.512Z,7.53
2022-10-20T09:26:58.685Z,6.63
2022-10-20T09:29:37.294Z,6.22
2022-10-20T09:32:40.839Z,6.10
2022-10-20T09:35:25.929Z,5.63
2022-10-20T09:38:18.905Z,5.45
2022-10-20T09:41:08.177Z,6.32
2022-10-20T09:43:35.373Z,4.90
2022-10-20T09:46:07.209Z,5.53
2022-10-20T09:48:42.902Z,5.07
2022-10-20T09:51:40.037Z,4.80
2022-10-20T09:54:08.095Z,4.70
2022-10-20T09:56:35.723Z,5.05
2022-10-20T09:59:05.987Z,4.72
2022-10-20T10:01:32.969Z,3.75
2022-10-20T10:04:02.153Z,4.07
2022-10-20T10:06:33.699Z,4.03
2022-10-20T10:09:01.854Z,4.07
2022-10-20T10:11:37.926Z,3.85
2022-10-20T10:14:05.040Z,3.85
2022-10-20T10:16:42.242Z,4.10
2022-10-20T10:19:16.376Z,4.53
2022-10-20T10:21:49.947Z,3.72
2022-10-20T10:24:46.593Z,4.75
2022-10-20T10:27:26.836Z,6.78
2022-10-20T10:30:17.632Z,5.10
2022-10-20T10:32:45.109Z,5.72
2022-10-20T10:35:15.151Z,5.80
2022-10-20T10:37:42.917Z,6.68
2022-10-20T10:40:17.536Z,7.00
2022-10-20T10:42:56.528Z,5.78
2022-10-20T10:45:49.972Z,12.38
2022-10-20T10:48:35.335Z,30.77
2022-10-20T10:51:08.919Z,11.40
2022-10-20T10:53:38.896Z,5.00
2022-10-20T10:56:24.195Z,4.82
2022-10-20T10:59:23.554Z,4.00
2022-10-20T11:02:15.448Z,3.88
2022-10-20T11:07:13.124Z,4.63
2022-10-20T11:10:01.187Z,5.03
2022-10-20T11:12:41.045Z,4.10
2022-10-20T11:15:17.307Z,4.38
2022-10-20T11:18:05.956Z,4.13
2022-10-20T11:20:36.172Z,4.40
2022-10-20T11:23:24.447Z,4.03
2022-10-20T11:26:08.792Z,3.97
2022-10-20T11:28:47.016Z,4.15
2022-10-20T11:31:24.505Z,4.72
2022-10-20T11:34:06.210Z,4.68
2022-10-20T11:36:43.257Z,4.78
2022-10-20T11:39:39.727Z,4.50
2022-10-20T11:42:25.395Z,3.92
2022-10-20T11:44:52.783Z,4.60
2022-10-20T11:47:23.184Z,4.32
2022-10-20T11:49:50.374Z,3.92
2022-10-20T11:52:32.543Z,4.10
2022-10-20T11:55:07.770Z,4.47
2022-10-20T11:57:57.694Z,4.47
2022-10-20T12:00:37.074Z,4.25
2022-10-20T12:03:34.155Z,4.70
2022-10-20T12:06:09.262Z,4.38
2022-10-20T12:08:52.443Z,4.00
2022-10-20T12:11:35.992Z,4.15
2022-10-20T12:14:15.373Z,3.90
2022-10-20T12:16:54.639Z,4.32
2022-10-20T12:19:22.510Z,3.97
2022-10-20T12:22:01.627Z,4.13
2022-10-20T12:24:35.774Z,4.30
2022-10-20T12:27:10.126Z,4.60
2022-10-20T12:29:37.002Z,4.50
2022-10-20T12:32:24.752Z,4.57
2022-10-20T12:34:59.531Z,6.20
2022-10-20T12:37:30.218Z,3.85
2022-10-20T12:40:06.777Z,2.87
2022-10-20T12:42:37.820Z,2.30
2022-10-20T12:45:06.947Z,1.73
2022-10-20T12:47:36.321Z,1.88
2022-10-20T12:50:08.432Z,1.90
2022-10-20T12:52:36.936Z,1.60
2022-10-20T12:55:05.788Z,1.80
2022-10-20T12:57:45.242Z,1.77
2022-10-20T13:00:24.137Z,2.10
2022-10-20T13:02:53.942Z,2.00
2022-10-20T13:05:28.439Z,2.00
2022-10-20T13:08:04.756Z,2.17
2022-10-20T13:10:36.360Z,2.55
2022-10-20T13:15:38.102Z,2.17
2022-10-20T13:18:20.018Z,2.10
2022-10-20T13:21:07.041Z,2.80
2022-10-20T13:23:56.946Z,2.63
2022-10-20T13:26:42.791Z,2.40
2022-10-20T13:29:17.254Z,2.78
2022-10-20T13:32:04.137Z,3.40
2022-10-20T13:35:09.407Z,2.85
2022-10-20T13:37:45.273Z,1.83
2022-10-20T13:40:12.183Z,2.03
2022-10-20T13:42:45.284Z,1.90
2022-10-20T13:45:41.265Z,1.52
2022-10-20T13:48:16.798Z,1.50
2022-10-20T13:50:46.485Z,1.52
2022-10-20T13:53:22.239Z,1.60
2022-10-20T13:56:04.660Z,1.73
2022-10-20T13:58:31.808Z,1.48
2022-10-20T14:01:07.892Z,1.50
2022-10-20T14:03:42.099Z,1.50
2022-10-20T14:06:28.810Z,1.80
2022-10-20T14:08:56.797Z,1.77
2022-10-20T14:11:24.932Z,1.70
2022-10-20T14:13:51.974Z,1.77
2022-10-20T14:16:21.362Z,1.80
2022-10-20T14:19:02.029Z,2.00
2022-10-20T14:21:29.019Z,1.70
2022-10-20T14:23:57.597Z,1.85
2022-10-20T14:26:24.614Z,1.83
2022-10-20T14:28:51.846Z,1.92
2022-10-20T14:31:21.646Z,1.80
2022-10-20T14:33:48.912Z,2.00
2022-10-20T14:36:20.292Z,1.70
2022-10-20T14:38:48.467Z,1.88
2022-10-20T14:41:24.593Z,1.90
2022-10-20T14:43:54.259Z,1.75
2022-10-20T14:46:30.062Z,1.90
2022-10-20T14:48:57.192Z,1.80
2022-10-20T14:51:48.213Z,1.52
2022-10-20T14:54:21.518Z,1.90
2022-10-20T14:56:49.875Z,1.60
2022-10-20T14:59:30.775Z,1.70
2022-10-20T15:02:11.283Z,1.50
2022-10-20T15:04:42.180Z,1.50
2022-10-20T15:07:17.268Z,1.83
2022-10-20T15:09:45.178Z,2.10
2022-10-20T15:12:18.370Z,3.03
2022-10-20T15:15:07.218Z,2.63
2022-10-20T15:17:37.665Z,1.88
2022-10-20T15:20:29.915Z,2.03
2022-10-20T15:25:25.136Z,1.90
2022-10-20T15:27:52.058Z,1.85
2022-10-20T15:30:20.370Z,1.90
2022-10-20T15:32:47.820Z,1.98
2022-10-20T15:35:19.152Z,2.10
2022-10-20T15:37:51.030Z,1.95
2022-10-20T15:40:18.294Z,2.05
2022-10-20T15:42:45.270Z,2.10
2022-10-20T15:45:34.366Z,2.15
2022-10-20T15:48:01.323Z,2.10
2022-10-20T15:50:28.340Z,2.00
2022-10-20T15:52:55.466Z,1.90
2022-10-20T15:55:35.241Z,1.90
2022-10-20T15:58:02.326Z,2.10
2022-10-20T16:00:29.484Z,2.13
2022-10-20T16:02:56.701Z,2.20
2022-10-20T16:05:24.109Z,1.90
2022-10-20T16:07:53.199Z,1.98
2022-10-20T16:10:23.838Z,1.80
2022-10-20T16:12:50.830Z,1.90
2022-10-20T16:15:17.990Z,2.00
2022-10-20T16:17:45.603Z,1.95
2022-10-20T16:20:12.592Z,2.42
2022-10-20T16:22:39.903Z,2.40
2022-10-20T16:25:07.321Z,1.90
2022-10-20T16:27:34.553Z,2.40
2022-10-20T16:30:01.821Z,2.30
2022-10-20T16:32:32.928Z,2.58
2022-10-20T16:35:03.419Z,2.50
2022-10-20T16:37:31.367Z,2.05
2022-10-20T16:39:59.133Z,2.13
2022-10-20T16:42:27.534Z,2.13
2022-10-20T16:44:54.575Z,2.35
2022-10-20T16:47:21.670Z,2.10
2022-10-20T16:49:48.658Z,2.30
2022-10-20T16:52:15.807Z,2.22
2022-10-20T16:54:42.824Z,2.15
2022-10-20T16:57:11.380Z,2.10
2022-10-20T16:59:38.845Z,2.20
2022-10-20T17:02:06.420Z,2.25
2022-10-20T17:04:33.596Z,2.10
2022-10-20T17:07:00.614Z,2.50
2022-10-20T17:09:29.999Z,2.35
2022-10-20T17:11:57.231Z,2.20
2022-10-20T17:14:24.178Z,2.10
2022-10-20T17:16:51.226Z,2.38
2022-10-20T17:19:18.162Z,2.50
2022-10-20T17:21:45.312Z,2.40
2022-10-20T17:24:12.509Z,2.38
2022-10-20T17:26:40.263Z,2.22
2022-10-20T17:29:09.326Z,2.20
2022-10-20T17:31:37.043Z,2.20
2022-10-20T17:34:03.981Z,2.35
2022-10-20T17:36:31.238Z,2.55
2022-10-20T17:39:02.940Z,2.40
2022-10-20T17:43:59.399Z,2.67
2022-10-20T17:46:26.415Z,2.45
2022-10-20T17:48:53.562Z,2.70
2022-10-20T17:51:22.757Z,2.55
2022-10-20T17:53:50.620Z,5.15
2022-10-20T17:56:27.485Z,9.15
2022-10-20T17:58:54.957Z,8.07
2022-10-20T18:01:23.805Z,7.05
2022-10-20T18:03:58.674Z,9.13
2022-10-20T18:06:33.757Z,8.43
2022-10-20T18:09:02.855Z,9.90
2022-10-20T18:11:30.994Z,9.20
2022-10-20T18:14:00.013Z,6.35
2022-10-20T18:16:28.397Z,4.25
2022-10-20T18:21:29.970Z,4.80
2022-10-20T18:23:58.883Z,4.10
2022-10-20T18:26:26.066Z,4.32
2022-10-20T18:28:53.064Z,3.70
2022-10-20T18:31:24.970Z,3.75
2022-10-20T18:33:57.012Z,3.60
2022-10-20T18:36:24.391Z,8.18
2022-10-20T18:38:51.499Z,4.00
2022-10-20T18:41:20.249Z,3.92
2022-10-20T18:43:47.460Z,11.52
2022-10-20T18:46:14.839Z,6.22
2022-10-20T18:48:42.177Z,6.85
2022-10-20T18:51:09.929Z,7.30
2022-10-20T18:53:37.634Z,13.07
2022-10-20T18:56:06.309Z,21.88
2022-10-20T18:58:35.259Z,33.67
2022-10-20T19:01:10.435Z,34.65
2022-10-20T19:03:37.558Z,35.20
2022-10-20T19:06:12.999Z,28.38
2022-10-20T19:08:40.201Z,26.88
2022-10-20T19:11:08.801Z,22.17
2022-10-20T19:13:36.481Z,21.27
2022-10-20T19:16:08.146Z,16.83
2022-10-20T19:18:36.847Z,15.73
2022-10-20T19:21:05.990Z,14.90
2022-10-20T19:23:33.868Z,14.38
2022-10-20T19:26:10.842Z,14.18
2022-10-20T19:28:44.086Z,13.77
2022-10-20T19:31:26.039Z,11.23
2022-10-20T19:36:24.683Z,11.90
2022-10-20T19:38:51.720Z,12.40
2022-10-20T19:41:18.642Z,12.55
2022-10-20T19:43:45.622Z,13.50
2022-10-20T19:46:14.038Z,13.27
2022-10-20T19:48:41.507Z,10.68
2022-10-20T19:51:11.499Z,10.23
2022-10-20T19:53:38.792Z,11.18
2022-10-20T19:56:06.966Z,9.32
2022-10-20T19:58:35.118Z,8.80
2022-10-20T20:01:02.648Z,8.30
2022-10-20T20:03:29.705Z,6.50
2022-10-20T20:06:17.007Z,6.30
2022-10-20T20:08:45.177Z,7.00
2022-10-20T20:11:21.266Z,6.07
2022-10-20T20:13:48.224Z,7.10
2022-10-20T20:16:15.391Z,6.93
2022-10-20T20:18:42.405Z,6.43
2022-10-20T20:21:10.034Z,5.93
2022-10-20T20:23:47.529Z,6.20
2022-10-20T20:26:21.635Z,6.90
2022-10-20T20:28:48.682Z,11.02
2022-10-20T20:31:15.655Z,15.55
2022-10-20T20:33:42.635Z,17.00
2022-10-20T20:36:09.836Z,13.25
2022-10-20T20:38:37.909Z,18.02
2022-10-20T20:41:06.664Z,14.73
2022-10-20T20:43:34.735Z,14.25
2022-10-20T20:46:06.167Z,10.73
2022-10-20T20:48:33.511Z,13.50
2022-10-20T20:51:00.457Z,13.07
2022-10-20T20:53:27.461Z,13.25
2022-10-20T20:55:55.116Z,12.15
2022-10-20T20:58:22.106Z,11.82
2022-10-20T21:00:49.297Z,10.68
2022-10-20T21:03:16.557Z,10.30
2022-10-20T21:05:43.604Z,9.25
2022-10-20T21:08:10.738Z,9.30
2022-10-20T21:10:37.820Z,8.30
2022-10-20T21:13:04.742Z,9.52
2022-10-20T21:15:31.717Z,8.55
2022-10-20T21:17:58.633Z,7.68
2022-10-20T21:20:25.608Z,7.97
2022-10-20T21:22:52.742Z,8.50
2022-10-20T21:25:19.745Z,7.97
2022-10-20T21:27:46.696Z,7.78
2022-10-20T21:30:13.583Z,7.45
2022-10-20T21:32:40.799Z,7.97
2022-10-20T21:35:08.206Z,7.40
2022-10-20T21:37:35.124Z,7.43
2022-10-20T21:40:02.051Z,7.05
2022-10-20T21:42:29.345Z,7.20
2022-10-20T21:44:56.352Z,7.50
2022-10-20T21:47:23.332Z,6.63
2022-10-20T21:49:50.253Z,7.43
2022-10-20T21:52:17.206Z,6.97
2022-10-20T21:54:44.115Z,6.70
2022-10-20T21:57:11.056Z,6.78
2022-10-20T21:59:37.965Z,6.43
2022-10-20T22:02:05.308Z,7.10
2022-10-20T22:04:32.444Z,6.13
2022-10-20T22:06:59.729Z,6.50
2022-10-20T22:09:26.922Z,6.57
2022-10-20T22:11:55.405Z,6.13
2022-10-20T22:14:22.873Z,5.90
2022-10-20T22:16:49.952Z,6.35
2022-10-20T22:19:20.632Z,6.70
2022-10-20T22:21:48.473Z,5.53
2022-10-20T22:24:16.398Z,6.28
2022-10-20T22:26:43.359Z,6.13
2022-10-20T22:29:10.451Z,6.18
2022-10-20T22:31:38.220Z,5.80
2022-10-20T22:34:05.281Z,5.18
2022-10-20T22:36:32.241Z,5.85
2022-10-20T22:38:59.183Z,6.15
2022-10-20T22:41:26.140Z,6.43
2022-10-20T22:43:53.262Z,5.40
2022-10-20T22:46:20.552Z,7.00
2022-10-20T22:48:47.548Z,9.77
2022-10-20T22:51:14.670Z,8.07
2022-10-20T22:53:41.885Z,6.10
2022-10-20T22:56:16.700Z,6.35
2022-10-20T22:58:43.958Z,7.30
2022-10-20T23:01:15.968Z,6.65
2022-10-20T23:03:43.054Z,7.15
2022-10-20T23:06:15.624Z,7.20
2022-10-20T23:08:44.663Z,6.85
2022-10-20T23:11:11.775Z,7.15
2022-10-20T23:13:38.689Z,7.78
2022-10-20T23:16:05.964Z,6.68
2022-10-20T23:18:33.068Z,7.40
2022-10-20T23:21:00.000Z,7.20
2022-10-20T23:23:26.955Z,7.47
2022-10-20T23:25:53.916Z,8.90
2022-10-20T23:28:21.001Z,7.72
2022-10-20T23:30:48.084Z,7.57
2022-10-20T23:33:15.148Z,7.72
2022-10-20T23:35:42.065Z,7.78
2022-10-20T23:38:09.795Z,7.78
2022-10-20T23:40:37.094Z,8.20
2022-10-20T23:43:04.256Z,7.38
2022-10-20T23:45:34.047Z,7.28
2022-10-20T23:48:03.946Z,7.32
2022-10-20T23:50:30.937Z,8.07
2022-10-20T23:52:57.871Z,7.13
2022-10-20T23:55:24.792Z,6.90
2022-10-20T23:57:51.812Z,8.13
